Time;durP1;ratioP1;P1;durP2;ratioP2;P2;SDS_P1;SDS_P2;PMS_P1;PMS_P2;Temp;Humidity;BMP_temperature;BMP_pressure;BME280_temperature;BME280_humidity;BME280_pressure;Samples;Min_cycle;Max_cycle;Signal;HPM_P1;HPM_P2
2023/07/16 00:00:18;;;;;;;4.75;3.00;;;;;;;;;;5881498;28;20055;-77
2023/07/16 00:03:09;;;;;;;5.15;2.97;;;;;;;;;;5877229;28;20810;-78
2023/07/16 00:06:00;;;;;;;4.05;2.70;;;;;;;;;;5882218;28;20057;-77
2023/07/16 00:08:51;;;;;;;4.88;2.47;;;;;;;;;;5858854;28;20041;-78
2023/07/16 00:11:41;;;;;;;5.18;3.00;;;;;;;;;;5858521;28;20056;-78
2023/07/16 00:14:32;;;;;;;4.47;3.10;;;;;;;;;;5858434;28;20055;-78
2023/07/16 00:17:23;;;;;;;6.32;3.15;;;;;;;;;;5858579;28;20042;-78
2023/07/16 00:20:14;;;;;;;6.22;3.35;;;;;;;;;;5858339;28;20049;-78
2023/07/16 00:23:05;;;;;;;3.70;2.65;;;;;;;;;;5858645;28;20045;-79
2023/07/16 00:25:56;;;;;;;5.30;3.20;;;;;;;;;;5858934;28;20045;-77
2023/07/16 00:28:47;;;;;;;4.50;3.25;;;;;;;;;;5858309;28;20042;-78
2023/07/16 00:31:38;;;;;;;6.43;3.30;;;;;;;;;;5858274;28;20191;-78
2023/07/16 00:34:29;;;;;;;4.60;3.25;;;;;;;;;;5858337;28;20056;-78
2023/07/16 00:37:19;;;;;;;4.47;3.22;;;;;;;;;;5858057;28;20061;-78
2023/07/16 00:40:10;;;;;;;4.30;3.17;;;;;;;;;;5858395;28;20058;-78
2023/07/16 00:43:01;;;;;;;5.65;2.70;;;;;;;;;;5860698;28;20424;-77
2023/07/16 00:45:52;;;;;;;5.15;3.40;;;;;;;;;;5863004;28;20094;-77
2023/07/16 00:48:43;;;;;;;6.40;3.17;;;;;;;;;;5861066;28;20128;-80
2023/07/16 00:51:34;;;;;;;3.63;2.70;;;;;;;;;;5862384;28;20124;-78
2023/07/16 00:54:26;;;;;;;5.00;3.15;;;;;;;;;;5862429;28;20486;-77
2023/07/16 00:57:17;;;;;;;4.82;3.13;;;;;;;;;;5862112;28;20084;-77
2023/07/16 01:00:10;;;;;;;4.55;2.83;;;;;;;;;;5860769;28;20362;-78
2023/07/16 01:03:07;;;;;;;4.45;2.97;;;;;;;;;;5862376;28;20212;-78
2023/07/16 01:06:40;;;;;;;4.47;3.10;;;;;;;;;;5860714;28;20079;-76
2023/07/16 01:09:32;;;;;;;4.85;2.85;;;;;;;;;;5885019;28;20143;-78
2023/07/16 01:12:26;;;;;;;3.20;2.85;;;;;;;;;;5883634;28;20387;-78
2023/07/16 01:15:17;;;;;;;4.60;2.80;;;;;;;;;;5883629;28;20179;-78
2023/07/16 01:18:08;;;;;;;9.63;3.10;;;;;;;;;;5885032;28;20052;-76
2023/07/16 01:20:59;;;;;;;4.10;3.20;;;;;;;;;;5885838;28;20049;-78
2023/07/16 01:24:18;;;;;;;4.38;3.03;;;;;;;;;;5885285;28;20045;-77
2023/07/16 01:27:48;;;;;;;7.20;3.22;;;;;;;;;;5877655;28;20401;-77
2023/07/16 01:30:43;;;;;;;4.88;3.30;;;;;;;;;;5884953;28;20423;-77
2023/07/16 01:33:35;;;;;;;4.45;2.90;;;;;;;;;;5884702;28;20053;-77
2023/07/16 01:36:28;;;;;;;5.10;3.15;;;;;;;;;;5884578;28;20052;-78
2023/07/16 01:39:19;;;;;;;3.85;2.97;;;;;;;;;;5884763;28;20045;-77
2023/07/16 01:42:10;;;;;;;4.70;3.20;;;;;;;;;;5884685;28;20511;-76
2023/07/16 01:45:01;;;;;;;6.63;4.55;;;;;;;;;;5885453;28;20508;-77
2023/07/16 01:48:34;;;;;;;5.05;3.65;;;;;;;;;;5899759;28;20692;-78
2023/07/16 01:51:25;;;;;;;4.68;3.75;;;;;;;;;;5878132;28;20055;-78
2023/07/16 01:54:15;;;;;;;5.35;3.42;;;;;;;;;;5884370;28;20117;-77
2023/07/16 01:57:06;;;;;;;6.90;5.28;;;;;;;;;;5883839;28;20160;-77
2023/07/16 01:59:57;;;;;;;4.18;3.17;;;;;;;;;;5884749;28;20142;-77
2023/07/16 02:02:48;;;;;;;5.85;3.40;;;;;;;;;;5887690;28;20045;-78
2023/07/16 02:05:39;;;;;;;5.28;2.92;;;;;;;;;;5882579;28;20067;-78
2023/07/16 02:08:32;;;;;;;5.78;3.15;;;;;;;;;;5884156;28;20056;-78
2023/07/16 02:11:23;;;;;;;5.53;3.08;;;;;;;;;;5883933;28;20049;-78
2023/07/16 02:14:14;;;;;;;6.90;3.90;;;;;;;;;;5882630;28;20055;-78
2023/07/16 02:17:05;;;;;;;5.00;3.17;;;;;;;;;;5883689;28;20052;-77
2023/07/16 02:19:56;;;;;;;4.60;3.25;;;;;;;;;;5884128;28;20075;-77
2023/07/16 02:22:46;;;;;;;5.20;2.92;;;;;;;;;;5882154;28;20499;-77
2023/07/16 02:25:38;;;;;;;3.78;2.78;;;;;;;;;;5883700;28;20057;-78
2023/07/16 02:28:29;;;;;;;4.47;3.22;;;;;;;;;;5883575;28;20063;-77
2023/07/16 02:31:19;;;;;;;4.88;3.33;;;;;;;;;;5883482;28;20047;-78
2023/07/16 02:34:10;;;;;;;4.38;3.28;;;;;;;;;;5883522;28;20130;-78
2023/07/16 02:37:01;;;;;;;9.10;3.40;;;;;;;;;;5883257;28;20048;-77
2023/07/16 02:39:52;;;;;;;5.45;3.17;;;;;;;;;;5884010;28;20041;-78
2023/07/16 02:42:43;;;;;;;5.57;3.05;;;;;;;;;;5883155;28;20060;-77
2023/07/16 02:45:33;;;;;;;6.40;3.22;;;;;;;;;;5881444;28;20052;-78
2023/07/16 02:48:24;;;;;;;3.75;2.80;;;;;;;;;;5881931;28;20058;-78
2023/07/16 02:51:15;;;;;;;5.50;3.58;;;;;;;;;;5898158;28;20136;-76
2023/07/16 02:54:06;;;;;;;4.68;3.13;;;;;;;;;;5883371;28;20421;-78
2023/07/16 02:56:57;;;;;;;3.60;3.03;;;;;;;;;;5883040;28;20128;-78
2023/07/16 02:59:48;;;;;;;4.60;3.10;;;;;;;;;;5882876;28;20045;-77
2023/07/16 03:02:38;;;;;;;6.25;3.15;;;;;;;;;;5881520;28;20433;-78
2023/07/16 03:05:30;;;;;;;4.28;3.42;;;;;;;;;;5882373;28;20132;-78
2023/07/16 03:08:20;;;;;;;4.25;3.30;;;;;;;;;;5897236;28;20071;-77
2023/07/16 03:11:12;;;;;;;6.25;3.03;;;;;;;;;;5897611;28;20210;-79
2023/07/16 03:14:03;;;;;;;4.85;3.30;;;;;;;;;;5882608;28;20570;-78
2023/07/16 03:16:54;;;;;;;6.15;3.15;;;;;;;;;;5882991;28;20076;-78
2023/07/16 03:19:44;;;;;;;4.50;3.17;;;;;;;;;;5882413;28;20052;-78
2023/07/16 03:22:35;;;;;;;3.95;3.20;;;;;;;;;;5882657;28;20422;-77
2023/07/16 03:25:26;;;;;;;5.07;3.22;;;;;;;;;;5880795;28;20049;-78
2023/07/16 03:28:17;;;;;;;4.40;3.50;;;;;;;;;;5882159;28;20124;-78
2023/07/16 03:31:08;;;;;;;4.22;3.20;;;;;;;;;;5882348;28;20044;-78
2023/07/16 03:33:58;;;;;;;4.55;3.17;;;;;;;;;;5897571;28;20087;-78
2023/07/16 03:36:49;;;;;;;6.32;3.10;;;;;;;;;;5897349;28;20045;-78
2023/07/16 03:39:40;;;;;;;4.85;3.30;;;;;;;;;;5882118;28;20045;-78
2023/07/16 03:42:31;;;;;;;6.40;3.17;;;;;;;;;;5882145;28;20049;-78
2023/07/16 03:45:23;;;;;;;4.78;3.85;;;;;;;;;;5882078;28;20646;-77
2023/07/16 03:48:14;;;;;;;4.28;3.35;;;;;;;;;;5882056;28;20067;-78
2023/07/16 03:51:05;;;;;;;5.20;3.25;;;;;;;;;;5881838;28;20045;-79
2023/07/16 03:53:56;;;;;;;4.25;3.58;;;;;;;;;;5882514;28;20143;-77
2023/07/16 03:56:47;;;;;;;6.20;3.40;;;;;;;;;;5881493;28;20049;-77
2023/07/16 03:59:37;;;;;;;4.65;2.78;;;;;;;;;;5881778;28;20045;-78
2023/07/16 04:02:28;;;;;;;4.03;3.00;;;;;;;;;;5881683;28;20721;-78
2023/07/16 04:05:19;;;;;;;5.70;2.95;;;;;;;;;;5881252;28;20100;-77
2023/07/16 04:08:14;;;;;;;6.32;2.80;;;;;;;;;;5880319;28;20626;-78
2023/07/16 04:11:05;;;;;;;4.50;2.72;;;;;;;;;;5881603;28;20053;-78
2023/07/16 04:13:56;;;;;;;4.50;2.97;;;;;;;;;;5882318;28;20571;-78
2023/07/16 04:16:47;;;;;;;7.55;2.92;;;;;;;;;;5881898;28;20049;-78
2023/07/16 04:19:38;;;;;;;5.18;3.10;;;;;;;;;;5886037;28;20137;-78
2023/07/16 04:22:29;;;;;;;4.57;3.28;;;;;;;;;;5884699;28;20124;-78
2023/07/16 04:25:20;;;;;;;4.35;2.90;;;;;;;;;;5886112;28;20067;-78
2023/07/16 04:28:12;;;;;;;4.85;3.00;;;;;;;;;;5886372;28;20056;-78
2023/07/16 04:31:02;;;;;;;3.25;2.70;;;;;;;;;;5886101;28;20045;-78
2023/07/16 04:33:53;;;;;;;7.68;2.70;;;;;;;;;;5886582;28;20594;-78
2023/07/16 04:36:44;;;;;;;3.92;2.40;;;;;;;;;;5885263;28;20061;-78
2023/07/16 04:39:35;;;;;;;3.50;3.15;;;;;;;;;;5885597;28;20045;-79
2023/07/16 04:42:26;;;;;;;4.35;2.60;;;;;;;;;;5885584;28;20047;-78
2023/07/16 04:45:17;;;;;;;4.20;2.72;;;;;;;;;;5885698;28;20045;-79
2023/07/16 04:48:07;;;;;;;4.15;2.90;;;;;;;;;;5885152;28;20049;-78
2023/07/16 04:50:59;;;;;;;3.50;2.75;;;;;;;;;;5886585;28;20140;-78
2023/07/16 04:53:51;;;;;;;5.93;2.83;;;;;;;;;;5885581;28;20130;-78
2023/07/16 04:56:42;;;;;;;4.22;2.40;;;;;;;;;;5885133;28;20071;-79
2023/07/16 04:59:33;;;;;;;4.22;2.65;;;;;;;;;;5885014;28;20414;-78
2023/07/16 05:02:24;;;;;;;2.88;2.15;;;;;;;;;;5885257;28;20049;-79
2023/07/16 05:05:15;;;;;;;3.13;2.50;;;;;;;;;;5884992;28;20076;-79
2023/07/16 05:08:06;;;;;;;5.47;2.00;;;;;;;;;;5884959;28;20051;-78
2023/07/16 05:10:56;;;;;;;4.90;2.10;;;;;;;;;;5885717;28;20049;-79
2023/07/16 05:13:47;;;;;;;2.90;1.83;;;;;;;;;;5885099;28;20045;-79
2023/07/16 05:16:38;;;;;;;6.18;2.08;;;;;;;;;;5885079;28;20056;-78
2023/07/16 05:19:29;;;;;;;3.42;1.80;;;;;;;;;;5884864;28;20466;-79
2023/07/16 05:22:20;;;;;;;4.22;2.03;;;;;;;;;;5884820;28;20053;-79
2023/07/16 05:25:11;;;;;;;3.95;2.13;;;;;;;;;;5884679;28;20052;-79
2023/07/16 05:28:02;;;;;;;4.78;2.05;;;;;;;;;;5884119;28;20057;-78
2023/07/16 05:31:01;;;;;;;6.00;2.20;;;;;;;;;;5885535;28;20499;-79
2023/07/16 05:33:51;;;;;;;2.63;1.70;;;;;;;;;;5876794;28;20052;-80
2023/07/16 05:36:44;;;;;;;3.85;2.00;;;;;;;;;;5880890;28;20439;-79
2023/07/16 05:39:35;;;;;;;4.85;1.80;;;;;;;;;;5829140;28;20045;-79
2023/07/16 05:42:25;;;;;;;5.55;1.90;;;;;;;;;;5883486;28;20056;-79
2023/07/16 05:45:16;;;;;;;2.08;1.65;;;;;;;;;;5884048;28;20049;-80
2023/07/16 05:48:08;;;;;;;3.85;1.70;;;;;;;;;;5865617;28;20045;-79
2023/07/16 05:50:59;;;;;;;7.55;1.80;;;;;;;;;;5861021;28;20133;-80
2023/07/16 05:53:50;;;;;;;6.65;2.58;;;;;;;;;;5856888;28;20083;-79
2023/07/16 05:56:40;;;;;;;5.55;2.50;;;;;;;;;;5880367;28;20468;-78
2023/07/16 05:59:36;;;;;;;5.07;2.58;;;;;;;;;;5883439;28;20418;-77
2023/07/16 06:02:26;;;;;;;4.70;2.30;;;;;;;;;;5883748;28;20795;-77
2023/07/16 06:05:17;;;;;;;4.03;2.00;;;;;;;;;;5883126;28;20145;-77
2023/07/16 06:08:08;;;;;;;5.50;2.45;;;;;;;;;;5883478;28;20820;-76
2023/07/16 06:10:59;;;;;;;6.10;2.72;;;;;;;;;;5883610;28;20053;-76
2023/07/16 06:13:50;;;;;;;6.10;2.28;;;;;;;;;;5883308;28;20407;-76
2023/07/16 06:16:40;;;;;;;3.67;2.40;;;;;;;;;;5882660;28;20785;-77
2023/07/16 06:19:31;;;;;;;3.88;2.25;;;;;;;;;;5883310;28;20041;-78
2023/07/16 06:22:22;;;;;;;6.22;2.40;;;;;;;;;;5881591;28;20057;-77
2023/07/16 06:25:13;;;;;;;4.05;2.15;;;;;;;;;;5880974;28;20045;-78
2023/07/16 06:28:04;;;;;;;4.78;2.10;;;;;;;;;;5882612;28;20053;-77
2023/07/16 06:30:55;;;;;;;7.35;2.10;;;;;;;;;;5894448;28;20522;-77
2023/07/16 06:33:46;;;;;;;7.47;2.42;;;;;;;;;;5903833;28;20415;-78
2023/07/16 06:36:38;;;;;;;3.75;2.00;;;;;;;;;;5883656;28;20377;-76
2023/07/16 06:39:30;;;;;;;3.05;1.80;;;;;;;;;;5879617;28;20518;-76
2023/07/16 06:42:21;;;;;;;5.32;1.85;;;;;;;;;;5880557;28;20067;-76
2023/07/16 06:45:12;;;;;;;3.65;1.90;;;;;;;;;;5880245;28;20057;-77
2023/07/16 06:48:03;;;;;;;2.35;1.70;;;;;;;;;;5881278;28;20060;-77
2023/07/16 06:50:54;;;;;;;3.58;1.80;;;;;;;;;;5882797;28;20072;-78
2023/07/16 06:53:45;;;;;;;4.18;2.20;;;;;;;;;;5881019;28;20040;-78
2023/07/16 06:56:36;;;;;;;3.45;1.85;;;;;;;;;;5882020;28;20041;-77
2023/07/16 06:59:29;;;;;;;1.98;1.70;;;;;;;;;;5882542;28;20127;-78
2023/07/16 07:02:20;;;;;;;7.65;2.17;;;;;;;;;;5882286;28;20041;-78
2023/07/16 07:05:11;;;;;;;11.52;2.60;;;;;;;;;;5880795;28;20045;-78
2023/07/16 07:08:02;;;;;;;5.47;2.42;;;;;;;;;;5880111;28;20072;-79
2023/07/16 07:10:53;;;;;;;3.00;1.90;;;;;;;;;;5882529;28;20681;-77
2023/07/16 07:13:44;;;;;;;8.93;2.63;;;;;;;;;;5882194;28;20041;-79
2023/07/16 07:16:35;;;;;;;11.25;3.53;;;;;;;;;;5881715;28;20052;-78
2023/07/16 07:19:26;;;;;;;6.68;3.25;;;;;;;;;;5881610;28;20041;-78
2023/07/16 07:22:17;;;;;;;9.02;3.20;;;;;;;;;;5881754;28;20059;-77
2023/07/16 07:25:12;;;;;;;7.85;4.13;;;;;;;;;;5881414;28;20088;-77
2023/07/16 07:28:03;;;;;;;4.40;2.55;;;;;;;;;;5881531;28;20063;-77
2023/07/16 07:30:54;;;;;;;5.03;2.40;;;;;;;;;;5880528;28;20075;-76
2023/07/16 07:33:45;;;;;;;2.40;1.70;;;;;;;;;;5881882;28;20472;-78
2023/07/16 07:36:36;;;;;;;4.13;2.35;;;;;;;;;;5881098;28;20041;-78
2023/07/16 07:39:27;;;;;;;3.78;2.38;;;;;;;;;;5881470;28;20045;-78
2023/07/16 07:42:20;;;;;;;5.13;3.03;;;;;;;;;;5881558;28;20052;-76
2023/07/16 07:45:15;;;;;;;7.32;3.80;;;;;;;;;;5881687;28;20045;-77
2023/07/16 07:48:05;;;;;;;11.38;5.32;;;;;;;;;;5881051;28;20049;-79
2023/07/16 07:50:56;;;;;;;6.63;3.65;;;;;;;;;;5881498;28;20057;-77
2023/07/16 07:53:47;;;;;;;5.70;3.35;;;;;;;;;;5881951;28;20499;-77
2023/07/16 07:56:38;;;;;;;5.00;2.97;;;;;;;;;;5880805;28;20052;-76
2023/07/16 07:59:30;;;;;;;9.27;3.20;;;;;;;;;;5881252;28;20051;-75
2023/07/16 08:02:23;;;;;;;6.22;2.60;;;;;;;;;;5881475;28;20060;-76
2023/07/16 08:05:14;;;;;;;5.97;2.80;;;;;;;;;;5881141;28;20403;-77
2023/07/16 08:08:05;;;;;;;2.00;1.50;;;;;;;;;;5881206;28;20075;-78
2023/07/16 08:10:56;;;;;;;2.40;1.67;;;;;;;;;;5897020;28;20801;-80
2023/07/16 08:13:47;;;;;;;4.30;2.17;;;;;;;;;;5881195;28;20049;-74
2023/07/16 08:16:38;;;;;;;5.65;2.60;;;;;;;;;;5880421;28;20047;-77
2023/07/16 08:19:29;;;;;;;5.85;2.53;;;;;;;;;;5880925;28;20124;-78
2023/07/16 08:22:19;;;;;;;7.10;3.10;;;;;;;;;;5881336;28;20379;-79
2023/07/16 08:25:10;;;;;;;3.72;2.45;;;;;;;;;;5895953;28;20048;-79
2023/07/16 08:28:04;;;;;;;6.28;2.60;;;;;;;;;;5896200;28;20060;-79
2023/07/16 08:30:55;;;;;;;4.88;2.92;;;;;;;;;;5881324;28;20470;-77
2023/07/16 08:33:46;;;;;;;4.40;2.60;;;;;;;;;;5881147;28;20045;-78
2023/07/16 08:36:55;;;;;;;4.22;2.47;;;;;;;;;;5880617;28;20664;-79
2023/07/16 08:39:46;;;;;;;3.72;2.25;;;;;;;;;;5879357;28;20063;-79
2023/07/16 08:42:38;;;;;;;6.18;2.90;;;;;;;;;;5879980;28;20041;-76
2023/07/16 08:45:30;;;;;;;7.60;2.53;;;;;;;;;;5879408;28;20515;-78
2023/07/16 08:48:22;;;;;;;2.80;2.22;;;;;;;;;;5879093;28;20044;-79
2023/07/16 08:51:15;;;;;;;8.57;2.63;;;;;;;;;;5880530;28;20411;-79
2023/07/16 08:54:06;;;;;;;6.65;3.08;;;;;;;;;;5881081;28;20048;-77
2023/07/16 08:56:57;;;;;;;4.88;2.80;;;;;;;;;;5880785;28;20542;-78
2023/07/16 08:59:50;;;;;;;5.18;2.67;;;;;;;;;;5882641;28;20044;-79
2023/07/16 09:02:42;;;;;;;7.55;3.65;;;;;;;;;;5904595;28;20128;-78
2023/07/16 09:05:36;;;;;;;4.93;3.17;;;;;;;;;;5899262;28;20468;-77
2023/07/16 09:08:30;;;;;;;6.13;3.80;;;;;;;;;;5885059;28;20059;-75
2023/07/16 09:11:22;;;;;;;6.85;3.95;;;;;;;;;;5884810;28;20064;-77
2023/07/16 09:14:17;;;;;;;4.50;3.70;;;;;;;;;;5885368;28;20053;-79
2023/07/16 09:17:08;;;;;;;6.88;3.55;;;;;;;;;;5884438;28;20044;-77
2023/07/16 09:20:02;;;;;;;5.10;3.28;;;;;;;;;;5884967;28;20045;-80
2023/07/16 09:22:57;;;;;;;10.27;3.65;;;;;;;;;;5885140;28;20040;-78
2023/07/16 09:25:50;;;;;;;4.70;3.55;;;;;;;;;;5884541;28;20055;-78
2023/07/16 09:28:41;;;;;;;5.55;3.53;;;;;;;;;;5883974;28;20438;-77
2023/07/16 09:31:31;;;;;;;6.30;3.42;;;;;;;;;;5884357;28;20191;-79
2023/07/16 09:34:22;;;;;;;4.07;3.10;;;;;;;;;;5884460;28;20131;-79
2023/07/16 09:37:13;;;;;;;6.55;4.03;;;;;;;;;;5883934;28;20053;-81
2023/07/16 09:40:09;;;;;;;4.28;3.15;;;;;;;;;;5884556;28;20063;-78
2023/07/16 09:43:01;;;;;;;5.57;3.03;;;;;;;;;;5883684;28;20059;-80
2023/07/16 09:45:52;;;;;;;6.07;3.25;;;;;;;;;;5875077;28;20423;-78
2023/07/16 09:48:43;;;;;;;5.90;2.83;;;;;;;;;;5883534;28;20286;-78
2023/07/16 09:51:36;;;;;;;4.05;3.17;;;;;;;;;;5884218;28;20049;-78
2023/07/16 09:54:32;;;;;;;4.13;2.92;;;;;;;;;;5882384;28;20040;-80
2023/07/16 09:57:26;;;;;;;4.20;3.15;;;;;;;;;;5883582;28;20045;-80
2023/07/16 10:00:18;;;;;;;4.30;2.85;;;;;;;;;;5883695;28;20056;-80
2023/07/16 10:03:09;;;;;;;4.28;3.13;;;;;;;;;;5884049;28;20055;-79
2023/07/16 10:06:08;;;;;;;3.97;2.90;;;;;;;;;;5895530;28;20055;-78
2023/07/16 10:08:59;;;;;;;6.00;2.80;;;;;;;;;;5883760;28;20060;-78
2023/07/16 10:11:50;;;;;;;5.18;2.90;;;;;;;;;;5878637;28;20040;-79
2023/07/16 10:14:52;;;;;;;4.22;3.10;;;;;;;;;;5883204;28;20049;-78
2023/07/16 10:17:50;;;;;;;7.05;3.30;;;;;;;;;;5875929;28;20069;-76
2023/07/16 10:20:47;;;;;;;3.20;2.70;;;;;;;;;;5860191;28;20453;-78
2023/07/16 10:23:39;;;;;;;5.80;2.83;;;;;;;;;;5859088;28;20053;-78
2023/07/16 10:26:30;;;;;;;4.95;2.58;;;;;;;;;;5875077;28;20041;-78
2023/07/16 10:29:21;;;;;;;4.10;2.75;;;;;;;;;;5879170;28;20053;-77
2023/07/16 10:32:12;;;;;;;5.43;2.50;;;;;;;;;;5881898;28;20399;-78
2023/07/16 10:35:10;;;;;;;5.28;3.15;;;;;;;;;;5881967;28;20052;-78
2023/07/16 10:38:02;;;;;;;5.18;2.65;;;;;;;;;;5882941;28;20141;-79
2023/07/16 10:40:56;;;;;;;2.83;2.53;;;;;;;;;;5881799;28;20179;-77
2023/07/16 10:43:46;;;;;;;11.32;2.55;;;;;;;;;;5877334;28;20044;-79
2023/07/16 10:46:37;;;;;;;5.85;2.55;;;;;;;;;;5880907;28;20060;-79
2023/07/16 10:49:29;;;;;;;5.28;2.40;;;;;;;;;;5880983;28;20179;-79
2023/07/16 10:52:22;;;;;;;6.55;2.80;;;;;;;;;;5881017;28;20128;-79
2023/07/16 10:55:13;;;;;;;6.13;2.97;;;;;;;;;;5880950;28;20056;-78
2023/07/16 10:58:08;;;;;;;3.72;2.53;;;;;;;;;;5882360;28;20068;-79
2023/07/16 11:00:58;;;;;;;5.32;2.40;;;;;;;;;;5849583;28;20072;-78
2023/07/16 11:03:49;;;;;;;4.00;2.50;;;;;;;;;;5859435;28;20053;-79
2023/07/16 11:06:40;;;;;;;4.30;2.40;;;;;;;;;;5859141;28;20515;-78
2023/07/16 11:09:32;;;;;;;7.40;2.83;;;;;;;;;;5858751;28;20050;-78
2023/07/16 11:12:24;;;;;;;3.28;2.42;;;;;;;;;;5857471;28;20053;-76
2023/07/16 11:15:14;;;;;;;3.40;2.67;;;;;;;;;;5859104;28;20072;-79
2023/07/16 11:18:05;;;;;;;2.78;2.35;;;;;;;;;;5859339;28;20159;-77
2023/07/16 11:20:56;;;;;;;6.43;3.05;;;;;;;;;;5882255;28;20053;-78
2023/07/16 11:23:47;;;;;;;3.30;2.45;;;;;;;;;;5882459;28;20511;-78
2023/07/16 11:26:38;;;;;;;2.92;2.20;;;;;;;;;;5880088;28;20404;-78
2023/07/16 11:29:35;;;;;;;5.20;2.60;;;;;;;;;;5880538;28;20049;-78
2023/07/16 11:32:34;;;;;;;3.58;2.17;;;;;;;;;;5882112;28;20402;-78
2023/07/16 11:35:25;;;;;;;3.95;2.50;;;;;;;;;;5879652;28;20059;-79
2023/07/16 11:38:17;;;;;;;5.53;2.67;;;;;;;;;;5880279;28;20060;-80
2023/07/16 11:41:09;;;;;;;5.55;2.88;;;;;;;;;;5880558;28;20422;-80
2023/07/16 11:44:03;;;;;;;2.88;2.25;;;;;;;;;;5881229;28;20110;-79
2023/07/16 11:46:53;;;;;;;2.88;2.30;;;;;;;;;;5880188;28;20037;-78
2023/07/16 11:49:44;;;;;;;3.17;2.47;;;;;;;;;;5880422;28;20131;-80
2023/07/16 11:52:38;;;;;;;2.30;2.00;;;;;;;;;;5837943;28;20050;-78
2023/07/16 11:55:29;;;;;;;3.33;2.20;;;;;;;;;;5853019;28;20048;-78
2023/07/16 11:58:20;;;;;;;6.50;2.33;;;;;;;;;;5881272;28;20415;-79
2023/07/16 12:01:11;;;;;;;4.47;2.30;;;;;;;;;;5884550;28;20048;-79
2023/07/16 12:04:02;;;;;;;5.28;2.20;;;;;;;;;;5876715;28;20053;-79
2023/07/16 12:06:53;;;;;;;3.60;2.13;;;;;;;;;;5890290;28;20053;-79
2023/07/16 12:09:44;;;;;;;4.70;2.58;;;;;;;;;;5878439;28;20053;-80
2023/07/16 12:12:38;;;;;;;2.83;1.95;;;;;;;;;;5899205;28;20451;-80
2023/07/16 12:15:29;;;;;;;7.45;2.45;;;;;;;;;;5883979;28;20060;-79
2023/07/16 12:18:23;;;;;;;2.75;2.13;;;;;;;;;;5883468;28;20057;-79
2023/07/16 12:21:17;;;;;;;6.05;2.42;;;;;;;;;;5876133;28;20135;-77
2023/07/16 12:24:07;;;;;;;4.15;2.08;;;;;;;;;;5901670;28;20494;-79
2023/07/16 12:26:58;;;;;;;4.13;2.17;;;;;;;;;;5871519;28;20046;-79
2023/07/16 12:29:49;;;;;;;5.60;2.20;;;;;;;;;;5879987;28;20130;-79
2023/07/16 12:32:40;;;;;;;4.65;2.20;;;;;;;;;;5880997;28;20049;-78
2023/07/16 12:35:30;;;;;;;3.10;2.05;;;;;;;;;;5881316;28;20045;-80
2023/07/16 12:38:22;;;;;;;3.97;2.10;;;;;;;;;;5882623;28;20157;-80
2023/07/16 12:41:15;;;;;;;3.65;2.40;;;;;;;;;;5885915;28;20480;-78
2023/07/16 12:44:05;;;;;;;2.42;1.88;;;;;;;;;;5886168;28;20618;-79
2023/07/16 12:46:56;;;;;;;5.90;2.17;;;;;;;;;;5886252;28;20049;-82
2023/07/16 12:49:47;;;;;;;4.93;2.08;;;;;;;;;;5885550;28;20055;-79
2023/07/16 12:52:38;;;;;;;2.83;2.05;;;;;;;;;;5885377;28;20503;-79
2023/07/16 12:55:31;;;;;;;3.33;2.80;;;;;;;;;;5885449;28;20044;-79
2023/07/16 12:58:22;;;;;;;5.82;2.50;;;;;;;;;;5885786;28;20051;-80
2023/07/16 13:01:12;;;;;;;4.72;2.35;;;;;;;;;;5900249;28;20059;-80
2023/07/16 13:04:03;;;;;;;4.95;3.10;;;;;;;;;;5885507;28;20087;-79
2023/07/16 13:06:54;;;;;;;4.18;2.53;;;;;;;;;;5885603;28;20060;-79
2023/07/16 13:09:45;;;;;;;5.60;2.72;;;;;;;;;;5883268;28;20564;-79
2023/07/16 13:12:36;;;;;;;4.15;2.65;;;;;;;;;;5885256;28;20466;-79
2023/07/16 13:15:27;;;;;;;6.10;2.83;;;;;;;;;;5884986;28;20067;-78
2023/07/16 13:18:18;;;;;;;3.53;2.30;;;;;;;;;;5885288;28;20866;-78
2023/07/16 13:21:08;;;;;;;3.20;2.60;;;;;;;;;;5885083;28;20510;-78
2023/07/16 13:23:59;;;;;;;4.03;2.72;;;;;;;;;;5885708;28;20049;-80
2023/07/16 13:26:50;;;;;;;4.63;2.92;;;;;;;;;;5876918;28;20057;-79
2023/07/16 13:29:41;;;;;;;5.28;2.47;;;;;;;;;;5884864;28;20428;-79
2023/07/16 13:32:31;;;;;;;4.40;2.63;;;;;;;;;;5867278;28;20049;-79
2023/07/16 13:35:23;;;;;;;8.77;2.55;;;;;;;;;;5860815;28;20622;-80
2023/07/16 13:38:14;;;;;;;5.18;3.03;;;;;;;;;;5879082;28;20139;-78
2023/07/16 13:41:05;;;;;;;6.43;2.70;;;;;;;;;;5900821;28;20104;-78
2023/07/16 13:43:56;;;;;;;3.60;2.75;;;;;;;;;;5907717;28;20059;-79
2023/07/16 13:46:47;;;;;;;5.13;2.92;;;;;;;;;;5906263;28;20052;-79
2023/07/16 13:49:37;;;;;;;4.38;2.53;;;;;;;;;;5905167;28;20052;-78
2023/07/16 13:52:28;;;;;;;4.80;2.50;;;;;;;;;;5907238;28;20045;-79
2023/07/16 13:55:19;;;;;;;3.08;2.60;;;;;;;;;;5907184;28;20155;-78
2023/07/16 13:58:10;;;;;;;4.75;2.65;;;;;;;;;;5906348;28;20125;-79
2023/07/16 14:01:01;;;;;;;6.15;2.53;;;;;;;;;;5919813;28;20044;-78
2023/07/16 14:03:52;;;;;;;11.32;3.03;;;;;;;;;;5930866;28;20036;-78
2023/07/16 14:06:43;;;;;;;6.50;2.65;;;;;;;;;;5911003;28;20045;-78
2023/07/16 14:09:34;;;;;;;6.22;3.00;;;;;;;;;;5905635;28;20055;-79
2023/07/16 14:12:25;;;;;;;6.32;2.67;;;;;;;;;;5906355;28;20495;-79
2023/07/16 14:15:17;;;;;;;5.22;3.03;;;;;;;;;;5906181;28;20218;-79
2023/07/16 14:18:08;;;;;;;3.17;2.75;;;;;;;;;;5906146;28;20044;-79
2023/07/16 14:21:00;;;;;;;7.90;3.00;;;;;;;;;;5906535;28;20102;-79
2023/07/16 14:23:51;;;;;;;10.43;3.47;;;;;;;;;;5906425;28;20040;-78
2023/07/16 14:26:42;;;;;;;5.95;3.15;;;;;;;;;;5906238;28;20494;-78
2023/07/16 14:29:34;;;;;;;7.30;3.03;;;;;;;;;;5905953;28;20052;-79
2023/07/16 14:32:25;;;;;;;7.38;3.00;;;;;;;;;;5905928;28;20052;-79
2023/07/16 14:35:16;;;;;;;4.55;3.40;;;;;;;;;;5905642;28;20545;-78
2023/07/16 14:38:26;;;;;;;4.40;3.60;;;;;;;;;;5905651;28;20191;-78
2023/07/16 14:41:16;;;;;;;7.25;2.92;;;;;;;;;;5905523;28;20079;-79
2023/07/16 14:44:07;;;;;;;5.88;3.10;;;;;;;;;;5905844;28;20053;-80
2023/07/16 14:46:58;;;;;;;6.50;3.28;;;;;;;;;;5921232;28;20071;-79
2023/07/16 14:49:49;;;;;;;4.03;3.03;;;;;;;;;;5905588;28;20049;-79
2023/07/16 14:52:40;;;;;;;6.97;3.05;;;;;;;;;;5905623;28;20047;-79
2023/07/16 14:55:31;;;;;;;8.88;2.90;;;;;;;;;;5905190;28;20068;-79
2023/07/16 14:58:22;;;;;;;4.28;3.00;;;;;;;;;;5904903;28;20075;-79
2023/07/16 15:01:13;;;;;;;5.05;3.17;;;;;;;;;;5904730;28;20044;-79
2023/07/16 15:04:04;;;;;;;7.97;3.15;;;;;;;;;;5905734;28;20060;-78
2023/07/16 15:06:56;;;;;;;7.85;3.10;;;;;;;;;;5905620;28;20051;-79
2023/07/16 15:09:46;;;;;;;5.63;2.95;;;;;;;;;;5904775;28;20049;-78
2023/07/16 15:12:37;;;;;;;5.10;3.10;;;;;;;;;;5920406;28;20049;-78
2023/07/16 15:15:28;;;;;;;6.95;2.97;;;;;;;;;;5904532;28;20098;-79
2023/07/16 15:18:20;;;;;;;6.88;3.00;;;;;;;;;;5904888;28;20526;-79
2023/07/16 15:21:11;;;;;;;6.50;3.25;;;;;;;;;;5919609;28;20482;-79
2023/07/16 15:24:01;;;;;;;5.50;3.20;;;;;;;;;;5928627;28;20051;-78
2023/07/16 15:26:52;;;;;;;3.97;2.80;;;;;;;;;;5908649;28;20044;-78
2023/07/16 15:29:43;;;;;;;4.97;2.60;;;;;;;;;;5904313;28;20051;-78
2023/07/16 15:32:34;;;;;;;5.18;3.20;;;;;;;;;;5903317;28;20045;-79
2023/07/16 15:35:25;;;;;;;4.78;3.30;;;;;;;;;;5904665;28;20427;-78
2023/07/16 15:38:15;;;;;;;4.30;3.00;;;;;;;;;;5904588;28;20056;-78
2023/07/16 15:41:06;;;;;;;8.50;3.08;;;;;;;;;;5904655;28;20063;-78
2023/07/16 15:43:57;;;;;;;4.45;2.83;;;;;;;;;;5905054;28;20055;-78
2023/07/16 15:46:48;;;;;;;3.97;3.00;;;;;;;;;;5904241;28;20045;-79
2023/07/16 15:49:38;;;;;;;5.47;2.78;;;;;;;;;;5903836;28;20453;-79
2023/07/16 15:52:29;;;;;;;4.97;3.40;;;;;;;;;;5898023;28;20059;-79
2023/07/16 15:55:21;;;;;;;5.15;3.17;;;;;;;;;;5915791;28;20225;-79
2023/07/16 15:58:12;;;;;;;6.53;3.30;;;;;;;;;;5904123;28;20120;-78
2023/07/16 16:01:03;;;;;;;10.00;3.47;;;;;;;;;;5895831;28;20573;-79
2023/07/16 16:03:54;;;;;;;6.38;3.50;;;;;;;;;;5881298;28;20060;-79
2023/07/16 16:06:45;;;;;;;4.63;3.42;;;;;;;;;;5899536;28;20125;-78
2023/07/16 16:09:37;;;;;;;8.43;3.67;;;;;;;;;;5904021;28;20063;-79
2023/07/16 16:12:28;;;;;;;6.88;3.90;;;;;;;;;;5905973;28;20467;-79
2023/07/16 16:15:18;;;;;;;8.25;3.83;;;;;;;;;;5909432;28;20045;-79
2023/07/16 16:18:14;;;;;;;5.20;3.50;;;;;;;;;;5909003;28;20473;-79
2023/07/16 16:21:05;;;;;;;8.40;3.50;;;;;;;;;;5908892;28;20048;-78
2023/07/16 16:23:57;;;;;;;5.90;3.85;;;;;;;;;;5909444;28;20059;-79
2023/07/16 16:26:48;;;;;;;7.68;3.35;;;;;;;;;;5927915;28;20494;-79
2023/07/16 16:29:39;;;;;;;5.35;3.13;;;;;;;;;;5930338;28;20036;-79
2023/07/16 16:32:30;;;;;;;7.97;3.63;;;;;;;;;;5908739;28;20507;-79
2023/07/16 16:35:21;;;;;;;12.07;3.72;;;;;;;;;;5908423;28;20041;-78
2023/07/16 16:38:13;;;;;;;5.43;3.38;;;;;;;;;;5908181;28;20056;-78
2023/07/16 16:41:08;;;;;;;5.75;2.97;;;;;;;;;;5908196;28;20075;-78
2023/07/16 16:44:00;;;;;;;4.82;3.20;;;;;;;;;;5907494;28;20045;-78
2023/07/16 16:46:50;;;;;;;4.80;3.50;;;;;;;;;;5908135;28;20041;-78
2023/07/16 16:49:44;;;;;;;3.95;3.00;;;;;;;;;;5907529;28;20040;-79
2023/07/16 16:52:35;;;;;;;7.20;3.35;;;;;;;;;;5908386;28;20430;-78
2023/07/16 16:55:27;;;;;;;6.47;3.20;;;;;;;;;;5907828;28;20056;-78
2023/07/16 16:58:18;;;;;;;5.47;3.20;;;;;;;;;;5907740;28;20052;-78
2023/07/16 17:01:08;;;;;;;6.18;3.20;;;;;;;;;;5907743;28;20398;-78
2023/07/16 17:03:59;;;;;;;10.82;3.08;;;;;;;;;;5908503;28;20098;-78
2023/07/16 17:06:53;;;;;;;4.32;3.08;;;;;;;;;;5907699;28;20529;-78
2023/07/16 17:09:44;;;;;;;6.38;2.97;;;;;;;;;;5907013;28;20051;-78